createdAt,value
2022-10-29T00:04:22.112Z,25.70
2022-10-29T00:09:24.423Z,24.87
2022-10-29T00:14:26.735Z,26.40
2022-10-29T00:19:29.101Z,24.13
2022-10-29T00:24:31.396Z,25.23
2022-10-29T00:29:33.760Z,26.93
2022-10-29T00:34:37.174Z,30.37
2022-10-29T00:39:39.497Z,27.77
2022-10-29T00:44:41.951Z,29.47
2022-10-29T00:49:51.089Z,29.27
2022-10-29T00:54:54.754Z,26.80
2022-10-29T00:59:57.342Z,30.30
2022-10-29T01:05:01.850Z,34.37
2022-10-29T01:10:04.638Z,36.87
2022-10-29T01:15:15.895Z,44.73
2022-10-29T01:20:45.498Z,45.53
2022-10-29T01:26:20.717Z,39.80
2022-10-29T01:31:47.721Z,36.03
2022-10-29T01:37:11.660Z,39.87
2022-10-29T01:42:38.957Z,43.80
2022-10-29T01:47:58.404Z,37.50
2022-10-29T01:53:03.717Z,36.07
2022-10-29T01:58:07.584Z,37.90
2022-10-29T02:03:44.754Z,35.07
2022-10-29T02:08:49.744Z,35.67
2022-10-29T02:14:02.828Z,33.30
2022-10-29T02:19:06.097Z,28.60
2022-10-29T02:24:08.692Z,24.90
2022-10-29T02:29:10.959Z,23.77
2022-10-29T02:34:13.349Z,25.67
2022-10-29T02:39:15.750Z,24.53
2022-10-29T02:44:18.136Z,23.23
2022-10-29T02:49:20.443Z,25.13
2022-10-29T02:54:22.713Z,22.67
2022-10-29T02:59:25.074Z,14.40
2022-10-29T03:04:27.724Z,14.27
2022-10-29T03:09:30.042Z,15.87
2022-10-29T03:14:32.361Z,14.87
2022-10-29T03:19:34.675Z,16.97
2022-10-29T03:24:36.995Z,16.43
2022-10-29T03:29:39.295Z,16.93
2022-10-29T03:34:41.590Z,15.77
2022-10-29T03:39:43.913Z,15.00
2022-10-29T03:44:46.261Z,13.83
2022-10-29T03:49:48.602Z,14.97
2022-10-29T03:54:50.911Z,15.00
2022-10-29T03:59:53.225Z,14.40
2022-10-29T04:04:55.493Z,13.07
2022-10-29T04:09:57.819Z,14.83
2022-10-29T04:15:00.134Z,14.50
2022-10-29T04:20:02.431Z,15.27
2022-10-29T04:30:28.035Z,14.60
2022-10-29T04:35:30.317Z,15.37
2022-10-29T04:40:33.035Z,14.10
2022-10-29T04:45:35.380Z,13.33
2022-10-29T04:50:38.801Z,13.07
2022-10-29T04:55:41.376Z,12.87
2022-10-29T05:00:43.840Z,12.07
2022-10-29T05:05:46.237Z,11.13
2022-10-29T05:10:48.540Z,12.97
2022-10-29T05:15:53.419Z,12.53
2022-10-29T05:20:56.976Z,12.37
2022-10-29T05:25:59.254Z,11.90
2022-10-29T05:31:02.534Z,10.87
2022-10-29T05:36:05.328Z,11.30
2022-10-29T05:41:08.116Z,13.63
2022-10-29T05:46:10.436Z,13.57
2022-10-29T05:51:12.777Z,13.47
2022-10-29T05:56:15.126Z,13.77
2022-10-29T06:01:19.890Z,15.00
2022-10-29T06:06:22.394Z,18.57
2022-10-29T06:11:24.760Z,14.97
2022-10-29T06:16:27.027Z,16.50
2022-10-29T06:21:29.325Z,12.47
2022-10-29T06:26:31.744Z,13.03
2022-10-29T06:31:34.029Z,12.27
2022-10-29T06:36:36.323Z,12.60
2022-10-29T06:41:38.594Z,12.67
2022-10-29T06:46:41.689Z,14.60
2022-10-29T06:51:44.029Z,13.17
2022-10-29T06:56:46.332Z,11.67
2022-10-29T07:01:48.670Z,12.57
2022-10-29T07:06:51.087Z,14.00
2022-10-29T07:11:53.399Z,14.13
2022-10-29T07:16:55.680Z,21.03
2022-10-29T07:21:57.964Z,29.13
2022-10-29T07:27:01.856Z,20.27
2022-10-29T07:32:04.257Z,13.17
2022-10-29T07:37:08.104Z,23.40
2022-10-29T07:42:10.437Z,18.67
2022-10-29T07:47:12.713Z,16.10
2022-10-29T07:52:15.108Z,14.07
2022-10-29T07:57:17.426Z,13.33
2022-10-29T08:02:19.756Z,13.00
2022-10-29T08:07:22.145Z,18.97
2022-10-29T08:12:24.517Z,25.50
2022-10-29T08:17:29.821Z,12.90
2022-10-29T08:22:32.086Z,13.27
2022-10-29T08:27:34.478Z,12.03
2022-10-29T08:32:36.754Z,13.07
2022-10-29T08:37:44.074Z,14.83
2022-10-29T08:43:27.486Z,13.67
2022-10-29T08:48:40.161Z,12.40
2022-10-29T08:54:17.308Z,12.53
2022-10-29T08:59:20.131Z,13.57
2022-10-29T09:04:36.510Z,11.60
2022-10-29T09:09:47.163Z,12.67
2022-10-29T09:14:52.261Z,12.03
2022-10-29T09:20:07.245Z,11.30
2022-10-29T09:25:27.963Z,11.17
2022-10-29T09:30:31.503Z,10.63
2022-10-29T09:35:39.518Z,11.47
2022-10-29T09:40:43.674Z,10.67
2022-10-29T09:46:04.843Z,10.40
2022-10-29T09:51:37.372Z,9.97
2022-10-29T09:56:44.897Z,9.53
2022-10-29T10:01:48.283Z,8.03
2022-10-29T10:07:16.833Z,9.17
2022-10-29T10:12:22.177Z,8.17
2022-10-29T10:17:24.455Z,8.10
2022-10-29T10:22:26.786Z,8.23
2022-10-29T10:27:31.182Z,7.93
2022-10-29T10:32:33.484Z,8.97
2022-10-29T10:37:35.874Z,7.97
2022-10-29T10:42:42.938Z,6.30
2022-10-29T10:47:51.433Z,9.03
2022-10-29T10:52:55.475Z,7.43
2022-10-29T10:58:19.864Z,8.43
2022-10-29T11:03:30.575Z,8.10
2022-10-29T11:08:39.072Z,7.23
2022-10-29T11:13:42.386Z,36.23
2022-10-29T11:18:58.594Z,6.30
2022-10-29T11:24:18.011Z,8.37
2022-10-29T11:29:20.258Z,7.63
2022-10-29T11:34:30.517Z,6.67
2022-10-29T11:39:45.548Z,6.03
2022-10-29T11:44:47.970Z,13.70
2022-10-29T11:50:17.007Z,10.17
2022-10-29T11:55:27.351Z,9.27
2022-10-29T12:00:44.082Z,10.70
2022-10-29T12:05:58.583Z,10.63
2022-10-29T12:11:18.469Z,8.23
2022-10-29T12:16:45.520Z,9.37
2022-10-29T12:21:57.774Z,8.60
2022-10-29T12:27:33.560Z,7.97
2022-10-29T12:32:55.776Z,6.87
2022-10-29T12:38:12.771Z,7.50
2022-10-29T12:43:29.378Z,6.17
2022-10-29T12:48:55.004Z,6.50
2022-10-29T12:54:21.585Z,6.57
2022-10-29T12:59:23.836Z,7.20
2022-10-29T13:04:28.761Z,7.20
2022-10-29T13:09:35.914Z,6.50
2022-10-29T13:14:54.387Z,6.70
2022-10-29T13:20:04.680Z,8.17
2022-10-29T13:25:38.030Z,7.33
2022-10-29T13:30:45.422Z,7.10
2022-10-29T13:36:03.147Z,8.17
2022-10-29T13:41:20.029Z,7.13
2022-10-29T13:46:45.414Z,6.30
2022-10-29T13:52:01.262Z,9.07
2022-10-29T13:57:12.741Z,9.93
2022-10-29T14:02:20.660Z,9.27
2022-10-29T14:07:35.418Z,8.60
2022-10-29T14:12:40.010Z,8.07
2022-10-29T14:17:42.308Z,7.73
2022-10-29T14:22:45.479Z,9.07
2022-10-29T14:27:47.865Z,10.37
2022-10-29T14:32:50.193Z,13.87
2022-10-29T14:37:56.873Z,13.83
2022-10-29T14:42:59.883Z,8.60
2022-10-29T14:48:09.842Z,9.13
2022-10-29T14:53:26.948Z,7.57
2022-10-29T14:58:32.241Z,15.43
2022-10-29T15:03:35.771Z,19.40
2022-10-29T15:08:43.724Z,21.37
2022-10-29T15:13:46.330Z,26.67
2022-10-29T15:18:50.813Z,38.23
2022-10-29T15:24:20.371Z,51.53
2022-10-29T15:29:32.227Z,44.07
2022-10-29T15:34:37.966Z,33.47
2022-10-29T15:39:58.754Z,23.90
2022-10-29T15:50:24.190Z,23.03
2022-10-29T15:55:31.899Z,36.47
2022-10-29T16:00:34.300Z,37.63
2022-10-29T16:05:37.403Z,48.97
2022-10-29T16:10:39.733Z,47.47
2022-10-29T16:15:44.189Z,48.13
2022-10-29T16:20:49.291Z,56.93
2022-10-29T16:25:51.576Z,62.00
2022-10-29T16:30:56.286Z,78.97
2022-10-29T16:35:58.577Z,74.60
2022-10-29T16:41:00.973Z,77.63
2022-10-29T16:46:05.458Z,96.33
2022-10-29T16:51:08.286Z,93.43
2022-10-29T16:56:10.672Z,91.77
2022-10-29T17:01:13.134Z,77.73
2022-10-29T17:06:15.574Z,70.63
2022-10-29T17:11:18.062Z,54.40
2022-10-29T17:16:20.428Z,42.07
2022-10-29T17:21:22.690Z,35.37
2022-10-29T17:26:25.273Z,37.43
2022-10-29T17:31:27.739Z,36.70
2022-10-29T17:36:30.042Z,67.33
2022-10-29T17:41:32.402Z,80.00
2022-10-29T17:46:34.693Z,98.03
2022-10-29T17:51:37.323Z,128.83
2022-10-29T17:56:39.989Z,123.77
2022-10-29T18:01:44.931Z,161.13
2022-10-29T18:06:47.350Z,141.20
2022-10-29T18:11:50.469Z,128.47
2022-10-29T18:16:52.780Z,150.77
2022-10-29T18:21:55.099Z,154.90
2022-10-29T18:26:57.399Z,173.10
2022-10-29T18:31:59.711Z,164.93
2022-10-29T18:37:02.477Z,181.53
2022-10-29T18:42:05.137Z,182.33
2022-10-29T18:47:07.504Z,235.13
2022-10-29T18:52:09.810Z,200.97
2022-10-29T18:57:15.411Z,214.17
2022-10-29T19:02:20.955Z,220.73
2022-10-29T19:07:23.445Z,210.33
2022-10-29T19:12:25.737Z,193.83
2022-10-29T19:17:28.031Z,187.27
2022-10-29T19:22:31.146Z,220.87
2022-10-29T19:27:33.616Z,203.80
2022-10-29T19:32:35.931Z,172.47
2022-10-29T19:37:39.044Z,136.80
2022-10-29T19:42:41.393Z,130.17
2022-10-29T19:47:46.396Z,127.77
2022-10-29T19:52:48.710Z,128.47
2022-10-29T19:57:51.032Z,123.53
2022-10-29T20:02:53.866Z,123.13
2022-10-29T20:07:56.551Z,128.77
2022-10-29T20:12:59.200Z,120.93
2022-10-29T20:18:01.539Z,130.30
2022-10-29T20:23:04.038Z,121.30
2022-10-29T20:28:06.356Z,138.67
2022-10-29T20:33:08.677Z,151.07
2022-10-29T20:38:11.023Z,153.20
2022-10-29T20:43:13.335Z,173.03
2022-10-29T20:48:15.763Z,172.40
2022-10-29T20:53:18.101Z,191.50
2022-10-29T20:58:21.627Z,175.43
2022-10-29T21:03:23.910Z,165.67
2022-10-29T21:13:31.631Z,138.03
2022-10-29T21:18:38.937Z,134.83
2022-10-29T21:23:41.340Z,132.40
2022-10-29T21:28:43.738Z,143.87
2022-10-29T21:33:48.513Z,150.37
2022-10-29T21:38:50.992Z,160.80
2022-10-29T21:43:53.438Z,167.57
2022-10-29T21:48:56.518Z,178.40
2022-10-29T21:53:58.899Z,178.77
2022-10-29T21:59:01.383Z,188.47
2022-10-29T22:04:03.837Z,198.87
2022-10-29T22:09:06.184Z,217.00
2022-10-29T22:14:08.530Z,221.37
2022-10-29T22:24:30.503Z,204.40
2022-10-29T22:29:32.861Z,174.80
2022-10-29T22:34:35.254Z,156.13
2022-10-29T22:39:37.549Z,146.83
2022-10-29T22:44:39.899Z,147.83
2022-10-29T22:49:42.192Z,145.03
2022-10-29T22:54:44.483Z,138.63
2022-10-29T22:59:46.830Z,139.27
2022-10-29T23:04:49.146Z,146.07
2022-10-29T23:09:51.451Z,142.77
2022-10-29T23:14:53.765Z,138.73
2022-10-29T23:19:56.290Z,138.03
2022-10-29T23:24:58.619Z,135.10
2022-10-29T23:30:00.936Z,128.33
2022-10-29T23:35:03.394Z,124.53
2022-10-29T23:40:06.291Z,120.77
2022-10-29T23:45:09.138Z,121.17
2022-10-29T23:50:11.487Z,120.70
2022-10-29T23:55:13.923Z,115.70
